createdAt,value
2023-11-10T00:01:54.117Z,4.90
2023-11-10T00:06:55.726Z,4.88
2023-11-10T00:11:57.597Z,4.85
2023-11-10T00:16:59.175Z,4.82
2023-11-10T00:22:00.683Z,4.81
2023-11-10T00:27:02.546Z,4.77
2023-11-10T00:32:04.270Z,4.75
2023-11-10T00:37:06.225Z,4.73
2023-11-10T00:42:07.942Z,4.71
2023-11-10T00:47:11.210Z,4.69
2023-11-10T00:52:12.744Z,4.68
2023-11-10T00:57:15.404Z,4.67
2023-11-10T01:02:16.927Z,4.66
2023-11-10T01:07:18.631Z,4.67
2023-11-10T01:12:20.823Z,4.70
2023-11-10T01:17:23.406Z,4.71
2023-11-10T01:22:24.969Z,4.75
2023-11-10T01:27:26.827Z,4.77
2023-11-10T01:32:28.429Z,4.80
2023-11-10T01:37:30.682Z,4.82
2023-11-10T01:42:32.259Z,4.84
2023-11-10T01:47:33.934Z,4.85
2023-11-10T01:52:35.693Z,4.86
2023-11-10T01:57:37.367Z,4.86
2023-11-10T02:02:39.212Z,4.85
2023-11-10T02:07:44.029Z,4.85
2023-11-10T02:12:56.814Z,4.86
2023-11-10T02:17:58.441Z,4.86
2023-11-10T02:23:00.697Z,4.87
2023-11-10T02:28:02.226Z,4.91
2023-11-10T02:33:03.905Z,4.96
2023-11-10T02:38:05.771Z,4.99
2023-11-10T02:43:08.992Z,5.02
2023-11-10T02:48:10.837Z,5.04
2023-11-10T02:53:12.432Z,5.05
2023-11-10T02:58:14.278Z,5.06
2023-11-10T03:03:16.383Z,5.08
2023-11-10T03:08:18.338Z,5.11
2023-11-10T03:13:20.854Z,5.15
2023-11-10T03:18:22.667Z,5.17
2023-11-10T03:23:24.346Z,5.18
2023-11-10T03:28:27.402Z,5.20
2023-11-10T03:33:30.252Z,5.22
2023-11-10T03:38:32.372Z,5.23
2023-11-10T03:43:34.753Z,5.24
2023-11-10T03:48:36.362Z,5.24
2023-11-10T03:53:38.193Z,5.24
2023-11-10T03:58:39.812Z,5.24
2023-11-10T04:03:42.959Z,5.25
2023-11-10T04:08:44.621Z,5.29
2023-11-10T04:13:46.840Z,5.34
2023-11-10T04:18:50.709Z,5.41
2023-11-10T04:23:52.646Z,5.49
2023-11-10T04:28:54.514Z,5.57
2023-11-10T04:33:56.154Z,5.64
2023-11-10T04:38:57.800Z,5.72
2023-11-10T04:44:00.986Z,5.77
2023-11-10T04:49:02.539Z,5.79
2023-11-10T04:54:05.190Z,5.82
2023-11-10T04:59:06.765Z,5.85
2023-11-10T05:04:09.030Z,5.88
2023-11-10T05:09:11.067Z,5.90
2023-11-10T05:14:13.220Z,5.93
2023-11-10T05:19:14.980Z,5.95
2023-11-10T05:24:17.338Z,5.99
2023-11-10T05:29:19.030Z,6.01
2023-11-10T05:34:20.842Z,6.03
2023-11-10T05:39:22.567Z,6.06
2023-11-10T05:44:24.388Z,6.08
2023-11-10T05:49:25.995Z,6.10
2023-11-10T05:54:27.623Z,6.13
2023-11-10T05:59:29.712Z,6.15
2023-11-10T06:04:35.352Z,6.16
2023-11-10T06:09:38.893Z,6.18
2023-11-10T06:14:43.018Z,6.21
2023-11-10T06:19:44.745Z,6.24
2023-11-10T06:24:46.393Z,6.26
2023-11-10T06:29:47.959Z,6.30
2023-11-10T06:34:49.890Z,6.33
2023-11-10T06:39:51.585Z,6.36
2023-11-10T06:44:53.142Z,6.38
2023-11-10T06:49:54.789Z,6.43
2023-11-10T06:54:57.940Z,6.47
2023-11-10T06:59:59.467Z,6.52
2023-11-10T07:05:00.999Z,6.56
2023-11-10T07:10:02.713Z,6.62
2023-11-10T07:15:05.362Z,6.68
2023-11-10T07:20:08.217Z,6.74
2023-11-10T07:25:09.786Z,6.79
2023-11-10T07:30:11.739Z,6.86
2023-11-10T07:35:14.614Z,6.94
2023-11-10T07:40:18.714Z,7.00
2023-11-10T07:45:20.595Z,7.08
2023-11-10T07:50:22.955Z,7.15
2023-11-10T07:55:25.324Z,7.20
2023-11-10T08:00:27.034Z,7.28
2023-11-10T08:05:28.612Z,7.37
2023-11-10T08:10:30.494Z,7.48
2023-11-10T08:15:32.095Z,7.57
2023-11-10T08:20:33.768Z,7.64
2023-11-10T08:25:36.910Z,7.73
2023-11-10T08:30:39.234Z,7.79
2023-11-10T08:35:40.843Z,7.84
2023-11-10T08:40:42.500Z,7.89
2023-11-10T08:45:44.089Z,7.92
2023-11-10T08:50:45.670Z,7.92
2023-11-10T08:55:47.453Z,7.96
2023-11-10T09:00:49.062Z,7.99
2023-11-10T09:05:50.779Z,8.07
2023-11-10T09:10:52.457Z,8.19
2023-11-10T09:16:01.704Z,8.30
2023-11-10T09:21:05.596Z,8.43
2023-11-10T09:26:07.171Z,8.54
2023-11-10T09:31:10.704Z,8.65
2023-11-10T09:36:12.197Z,8.70
2023-11-10T09:41:18.158Z,8.76
2023-11-10T09:46:20.667Z,8.86
2023-11-10T09:51:27.833Z,8.95
2023-11-10T09:56:32.381Z,9.05
2023-11-10T10:01:34.291Z,9.16
2023-11-10T10:06:37.485Z,9.23
2023-11-10T10:11:40.786Z,9.32
2023-11-10T10:16:56.346Z,9.40
2023-11-10T10:22:00.360Z,9.49
2023-11-10T10:27:02.272Z,9.62
2023-11-10T10:32:04.668Z,9.71
2023-11-10T10:37:06.543Z,9.73
2023-11-10T10:42:15.507Z,9.75
2023-11-10T10:47:17.516Z,9.80
2023-11-10T10:52:19.727Z,9.91
2023-11-10T10:57:24.965Z,10.02
2023-11-10T11:02:27.716Z,10.08
2023-11-10T11:07:57.922Z,10.16
2023-11-10T11:13:05.536Z,10.30
2023-11-10T11:18:30.140Z,10.43
2023-11-10T11:23:34.358Z,10.55
2023-11-10T11:28:40.101Z,10.58
2023-11-10T11:33:55.065Z,10.57
2023-11-10T11:38:57.721Z,10.43
2023-11-10T11:43:59.262Z,10.37
2023-11-10T11:49:03.172Z,10.33
2023-11-10T11:54:05.015Z,10.32
2023-11-10T11:59:06.691Z,10.31
2023-11-10T12:04:09.006Z,10.34
2023-11-10T12:09:11.090Z,10.39
2023-11-10T12:14:13.365Z,10.46
2023-11-10T12:19:18.956Z,10.52
2023-11-10T12:24:27.968Z,10.52
2023-11-10T12:29:31.197Z,10.52
2023-11-10T12:34:36.506Z,10.48
2023-11-10T12:39:39.412Z,10.49
2023-11-10T12:44:41.155Z,10.49
2023-11-10T12:49:44.672Z,10.52
2023-11-10T12:54:48.806Z,10.53
2023-11-10T12:59:50.449Z,10.53
2023-11-10T13:04:52.008Z,10.52
2023-11-10T13:09:53.601Z,10.50
2023-11-10T13:14:55.369Z,10.47
2023-11-10T13:19:56.981Z,10.47
2023-11-10T13:24:58.618Z,10.47
2023-11-10T13:30:04.566Z,10.44
2023-11-10T13:35:06.964Z,10.36
2023-11-10T13:40:15.665Z,10.26
2023-11-10T13:45:17.513Z,10.14
2023-11-10T13:50:19.960Z,10.05
2023-11-10T13:55:21.503Z,9.99
2023-11-10T14:00:23.335Z,9.95
2023-11-10T14:05:24.945Z,9.90
2023-11-10T14:10:26.561Z,9.83
2023-11-10T14:15:28.439Z,9.74
2023-11-10T14:20:30.067Z,9.65
2023-11-10T14:25:31.961Z,9.59
2023-11-10T14:30:34.672Z,9.50
2023-11-10T14:35:36.425Z,9.43
2023-11-10T14:40:39.626Z,9.38
2023-11-10T14:45:45.929Z,9.30
2023-11-10T14:50:49.247Z,9.21
2023-11-10T14:55:50.919Z,9.15
2023-11-10T15:00:52.629Z,9.07
2023-11-10T15:05:54.188Z,8.99
2023-11-10T15:10:56.449Z,8.93
2023-11-10T15:15:59.724Z,8.85
2023-11-10T15:21:01.350Z,8.79
2023-11-10T15:26:03.006Z,8.73
2023-11-10T15:31:06.891Z,8.70
2023-11-10T15:36:10.955Z,8.66
2023-11-10T15:41:12.539Z,8.63
2023-11-10T15:46:14.257Z,8.59
2023-11-10T15:51:15.913Z,8.54
2023-11-10T15:56:18.049Z,8.49
2023-11-10T16:01:20.127Z,8.48
2023-11-10T16:06:21.842Z,8.45
2023-11-10T16:11:23.430Z,8.42
2023-11-10T16:16:25.549Z,8.39
2023-11-10T16:21:27.386Z,8.35
2023-11-10T16:26:28.996Z,8.29
2023-11-10T16:31:30.622Z,8.21
2023-11-10T16:36:32.224Z,8.13
2023-11-10T16:41:36.367Z,8.08
2023-11-10T16:46:38.024Z,8.03
2023-11-10T16:51:41.317Z,8.00
2023-11-10T16:56:42.968Z,7.98
2023-11-10T17:01:44.644Z,7.96
2023-11-10T17:06:47.711Z,7.95
2023-11-10T17:11:49.271Z,7.94
2023-11-10T17:16:51.381Z,7.93
2023-11-10T17:21:54.213Z,7.91
2023-11-10T17:26:56.787Z,7.90
2023-11-10T17:32:02.601Z,7.87
2023-11-10T17:37:05.398Z,7.88
2023-11-10T17:42:07.436Z,7.87
2023-11-10T17:47:09.124Z,7.87
2023-11-10T17:52:10.775Z,7.86
2023-11-10T17:57:12.446Z,7.85
2023-11-10T18:02:14.493Z,7.81
2023-11-10T18:07:17.427Z,7.80
2023-11-10T18:12:19.409Z,7.78
2023-11-10T18:17:21.699Z,7.77
2023-11-10T18:22:23.369Z,7.76
2023-11-10T18:27:25.644Z,7.77
2023-11-10T18:32:27.362Z,7.78
2023-11-10T18:37:29.413Z,7.81
2023-11-10T18:42:30.974Z,7.82
2023-11-10T18:47:32.575Z,7.83
2023-11-10T18:52:34.496Z,7.82
2023-11-10T18:57:36.211Z,7.81
2023-11-10T19:02:38.089Z,7.80
2023-11-10T19:07:41.678Z,7.78
2023-11-10T19:12:45.307Z,7.77
2023-11-10T19:17:47.215Z,7.78
2023-11-10T19:22:49.034Z,7.78
2023-11-10T19:27:51.217Z,7.79
2023-11-10T19:32:52.875Z,7.78
2023-11-10T19:37:54.933Z,7.79
2023-11-10T19:42:56.850Z,7.80
2023-11-10T19:47:58.460Z,7.79
2023-11-10T19:53:02.219Z,7.77
2023-11-10T19:58:03.889Z,7.77
2023-11-10T20:03:06.284Z,7.76
2023-11-10T20:08:09.244Z,7.74
2023-11-10T20:13:10.888Z,7.71
2023-11-10T20:18:12.674Z,7.70
2023-11-10T20:23:14.644Z,7.69
2023-11-10T20:28:16.197Z,7.64
2023-11-10T20:33:17.855Z,7.63
2023-11-10T20:38:19.768Z,7.60
2023-11-10T20:43:21.283Z,7.59
2023-11-10T20:48:22.962Z,7.59
2023-11-10T20:53:24.705Z,7.58
2023-11-10T20:58:26.244Z,7.56
2023-11-10T21:03:27.951Z,7.54
2023-11-10T21:08:29.713Z,7.52
2023-11-10T21:13:31.298Z,7.50
2023-11-10T21:18:35.031Z,7.46
2023-11-10T21:23:36.486Z,7.42
2023-11-10T21:28:40.167Z,7.39
2023-11-10T21:33:41.857Z,7.37
2023-11-10T21:38:43.627Z,7.35
2023-11-10T21:43:45.174Z,7.31
2023-11-10T21:48:46.739Z,7.28
2023-11-10T21:53:48.267Z,7.28
2023-11-10T21:58:50.077Z,7.29
2023-11-10T22:03:51.719Z,7.28
2023-11-10T22:08:53.322Z,7.26
2023-11-10T22:13:55.398Z,7.23
2023-11-10T22:18:57.770Z,7.21
2023-11-10T22:23:59.362Z,7.21
2023-11-10T22:29:00.888Z,7.17
2023-11-10T22:34:02.464Z,7.18
2023-11-10T22:39:04.146Z,7.18
2023-11-10T22:44:06.045Z,7.18
2023-11-10T22:49:07.804Z,7.20
2023-11-10T22:54:09.511Z,7.19
2023-11-10T22:59:11.065Z,7.20
2023-11-10T23:04:12.716Z,7.21
2023-11-10T23:09:15.428Z,7.22
2023-11-10T23:14:17.023Z,7.22
2023-11-10T23:19:19.371Z,7.23
2023-11-10T23:24:21.036Z,7.23
2023-11-10T23:29:23.652Z,7.23
2023-11-10T23:34:25.239Z,7.25
2023-11-10T23:39:27.270Z,7.23
2023-11-10T23:44:28.873Z,7.21
2023-11-10T23:49:30.771Z,7.22
2023-11-10T23:54:33.911Z,7.20
2023-11-10T23:59:36.735Z,7.19
